B1012 ZBAA-ZHCC
Flight info
| Callsign | B1012 |
|---|---|
| Flight time | 1h 9m |
| Altitude | 30100 |
| Route | RUSDO9Z RUSDO W45 VAGBI B215 EKETA B208 NOPIN NOP9U |
| Aircraft | C700/M-SBDGHM1RWXY/LB2 |
Departure
| Time | 2026-05-07 11:30 |
|---|---|
| Airport | Beijing Capital International Airport (ZBAA) |
Arrival
| Time | 2026-05-07 12:40 |
|---|---|
| Airport | Zhengzhou Xinzheng International Airport (ZHCC) |
| Time | Latitude | Longitude | Altitude | Speed | Heading |
|---|---|---|---|---|---|
| 2026-05-07 10:51 | 40.06063 | 116.61348 | 118 ft | 0 kts | 83° |
| 2026-05-07 11:05 | 40.06062 | 116.61343 | 114 ft | 0 kts | 84° |
| 2026-05-07 11:06 | 40.06108 | 116.61337 | 118 ft | 0 kts | 84° |
| 2026-05-07 11:16 | 40.06108 | 116.61334 | 118 ft | 2 kts | 84° |
| 2026-05-07 11:16 | 40.06107 | 116.61311 | 116 ft | 3 kts | 88° |
| 2026-05-07 11:16 | 40.06105 | 116.61285 | 117 ft | 3 kts | 84° |
| 2026-05-07 11:17 | 40.06104 | 116.61258 | 118 ft | 3 kts | 88° |
| 2026-05-07 11:17 | 40.06103 | 116.61233 | 118 ft | 3 kts | 75° |
| 2026-05-07 11:17 | 40.06096 | 116.61218 | 118 ft | 2 kts | 356° |
| 2026-05-07 11:17 | 40.06084 | 116.61220 | 116 ft | 3 kts | 353° |
| 2026-05-07 11:18 | 40.06074 | 116.61221 | 118 ft | 0 kts | 353° |
| 2026-05-07 11:22 | 40.06103 | 116.61220 | 118 ft | 16 kts | 358° |
| 2026-05-07 11:22 | 40.06226 | 116.61201 | 118 ft | 12 kts | 352° |
| 2026-05-07 11:22 | 40.06316 | 116.61185 | 118 ft | 14 kts | 347° |
| 2026-05-07 11:22 | 40.06343 | 116.61068 | 118 ft | 16 kts | 263° |
| 2026-05-07 11:23 | 40.06341 | 116.61041 | 117 ft | 0 kts | 263° |
| 2026-05-07 11:23 | 40.06337 | 116.61000 | 114 ft | 9 kts | 263° |
| 2026-05-07 11:23 | 40.06328 | 116.60905 | 118 ft | 12 kts | 263° |
| 2026-05-07 11:23 | 40.06317 | 116.60781 | 118 ft | 15 kts | 264° |
| 2026-05-07 11:24 | 40.06305 | 116.60649 | 117 ft | 15 kts | 264° |
| 2026-05-07 11:24 | 40.06292 | 116.60505 | 116 ft | 17 kts | 263° |
| 2026-05-07 11:24 | 40.06282 | 116.60404 | 118 ft | 10 kts | 263° |
| 2026-05-07 11:24 | 40.06279 | 116.60370 | 118 ft | 4 kts | 263° |
| 2026-05-07 11:25 | 40.06276 | 116.60342 | 117 ft | 0 kts | 263° |
| 2026-05-07 11:26 | 40.06272 | 116.60301 | 118 ft | 14 kts | 263° |
| 2026-05-07 11:26 | 40.06253 | 116.60160 | 117 ft | 17 kts | 230° |
| 2026-05-07 11:26 | 40.06133 | 116.60158 | 118 ft | 19 kts | 174° |
| 2026-05-07 11:27 | 40.05991 | 116.60180 | 118 ft | 22 kts | 174° |
| 2026-05-07 11:27 | 40.05829 | 116.60205 | 118 ft | 25 kts | 172° |
| 2026-05-07 11:27 | 40.05653 | 116.60233 | 117 ft | 27 kts | 172° |
| 2026-05-07 11:27 | 40.05607 | 116.60241 | 118 ft | 0 kts | 172° |
| 2026-05-07 11:28 | 40.05559 | 116.60248 | 115 ft | 2 kts | 180° |
| 2026-05-07 11:28 | 40.05545 | 116.60219 | 116 ft | 5 kts | 267° |
| 2026-05-07 11:28 | 40.05542 | 116.60163 | 118 ft | 0 kts | 265° |
| 2026-05-07 11:29 | 40.05541 | 116.60117 | 117 ft | 12 kts | 273° |
| 2026-05-07 11:29 | 40.05588 | 116.60022 | 118 ft | 14 kts | 316° |
| 2026-05-07 11:30 | 40.05695 | 116.59991 | 120 ft | 31 kts | 355° |
| 2026-05-07 11:30 | 40.06199 | 116.59915 | 120 ft | 117 kts | 352° |
| 2026-05-07 11:30 | 40.07211 | 116.59759 | 518 ft | 173 kts | 352° |
| 2026-05-07 11:30 | 40.08607 | 116.59526 | 1058 ft | 233 kts | 352° |
| 2026-05-07 11:31 | 40.10319 | 116.59263 | 1596 ft | 247 kts | 353° |
| 2026-05-07 11:31 | 40.12057 | 116.58998 | 2128 ft | 250 kts | 353° |
| 2026-05-07 11:31 | 40.13637 | 116.58746 | 2725 ft | 206 kts | 352° |
| 2026-05-07 11:31 | 40.14979 | 116.58534 | 3371 ft | 200 kts | 352° |
| 2026-05-07 11:32 | 40.18164 | 116.58029 | 4771 ft | 249 kts | 352° |
| 2026-05-07 11:32 | 40.19905 | 116.57754 | 5458 ft | 255 kts | 352° |
| 2026-05-07 11:32 | 40.21680 | 116.57476 | 6196 ft | 255 kts | 352° |
| 2026-05-07 11:33 | 40.23449 | 116.57168 | 7191 ft | 260 kts | 348° |
| 2026-05-07 11:33 | 40.24586 | 116.56707 | 7842 ft | 260 kts | 338° |
| 2026-05-07 11:33 | 40.26185 | 116.55564 | 8868 ft | 264 kts | 325° |
| 2026-05-07 11:33 | 40.27582 | 116.53984 | 9928 ft | 268 kts | 319° |
| 2026-05-07 11:34 | 40.28979 | 116.52360 | 10913 ft | 269 kts | 319° |
| 2026-05-07 11:34 | 40.30185 | 116.50474 | 11909 ft | 273 kts | 306° |
| 2026-05-07 11:34 | 40.31064 | 116.48254 | 12949 ft | 280 kts | 295° |
| 2026-05-07 11:34 | 40.31565 | 116.45775 | 13998 ft | 284 kts | 283° |
| 2026-05-07 11:35 | 40.31656 | 116.43141 | 14968 ft | 295 kts | 275° |
| 2026-05-07 11:35 | 40.31650 | 116.40465 | 15976 ft | 295 kts | 276° |
| 2026-05-07 11:35 | 40.31661 | 116.37766 | 17019 ft | 298 kts | 276° |
| 2026-05-07 11:35 | 40.31660 | 116.35034 | 18095 ft | 302 kts | 276° |
| 2026-05-07 11:36 | 40.31658 | 116.32265 | 19083 ft | 306 kts | 276° |
| 2026-05-07 11:36 | 40.31660 | 116.29405 | 19752 ft | 327 kts | 276° |
| 2026-05-07 11:36 | 40.31671 | 116.26263 | 19783 ft | 363 kts | 276° |
| 2026-05-07 11:36 | 40.31666 | 116.22819 | 19796 ft | 388 kts | 275° |
| 2026-05-07 11:37 | 40.31645 | 116.19244 | 19792 ft | 396 kts | 275° |
| 2026-05-07 11:37 | 40.31636 | 116.15617 | 19792 ft | 398 kts | 275° |
| 2026-05-07 11:37 | 40.31634 | 116.11977 | 19790 ft | 401 kts | 275° |
| 2026-05-07 11:37 | 40.31480 | 116.08326 | 19789 ft | 402 kts | 268° |
| 2026-05-07 11:38 | 40.30902 | 116.04709 | 19787 ft | 412 kts | 260° |
| 2026-05-07 11:38 | 40.29910 | 116.01179 | 19790 ft | 416 kts | 251° |
| 2026-05-07 11:38 | 40.28505 | 115.97869 | 20055 ft | 405 kts | 242° |
| 2026-05-07 11:38 | 40.26883 | 115.95046 | 20795 ft | 377 kts | 236° |
| 2026-05-07 11:39 | 40.25020 | 115.92593 | 21545 ft | 382 kts | 227° |
| 2026-05-07 11:39 | 40.22898 | 115.90482 | 22344 ft | 389 kts | 220° |
| 2026-05-07 11:39 | 40.20514 | 115.88718 | 23144 ft | 397 kts | 213° |
| 2026-05-07 11:39 | 40.18046 | 115.87055 | 23929 ft | 401 kts | 214° |
| 2026-05-07 11:40 | 40.15565 | 115.85351 | 24627 ft | 404 kts | 214° |
| 2026-05-07 11:40 | 40.13058 | 115.83649 | 25351 ft | 408 kts | 214° |
| 2026-05-07 11:40 | 40.10524 | 115.81948 | 26089 ft | 412 kts | 214° |
| 2026-05-07 11:40 | 40.07968 | 115.80222 | 26848 ft | 415 kts | 215° |
| 2026-05-07 11:41 | 40.05394 | 115.78476 | 27628 ft | 418 kts | 215° |
| 2026-05-07 11:41 | 40.02799 | 115.76724 | 28433 ft | 422 kts | 216° |
| 2026-05-07 11:41 | 40.00182 | 115.74959 | 29261 ft | 425 kts | 216° |
| 2026-05-07 11:41 | 39.97544 | 115.73185 | 30107 ft | 429 kts | 216° |
| 2026-05-07 11:42 | 39.94845 | 115.71359 | 30293 ft | 448 kts | 216° |
| 2026-05-07 11:42 | 39.92013 | 115.69438 | 30300 ft | 470 kts | 216° |
| 2026-05-07 11:42 | 39.89097 | 115.67344 | 30303 ft | 484 kts | 220° |
| 2026-05-07 11:43 | 39.83991 | 115.61741 | 30309 ft | 476 kts | 235° |
| 2026-05-07 11:43 | 39.80233 | 115.54821 | 30309 ft | 462 kts | 249° |
| 2026-05-07 11:44 | 39.77220 | 115.47448 | 30311 ft | 462 kts | 249° |
| 2026-05-07 11:44 | 39.74230 | 115.40079 | 30308 ft | 459 kts | 251° |
| 2026-05-07 11:45 | 39.71360 | 115.32679 | 30305 ft | 458 kts | 250° |
| 2026-05-07 11:45 | 39.68415 | 115.25349 | 30296 ft | 458 kts | 251° |
| 2026-05-07 11:46 | 39.65512 | 115.17993 | 30299 ft | 458 kts | 250° |
| 2026-05-07 11:46 | 39.62577 | 115.10661 | 30306 ft | 457 kts | 251° |
| 2026-05-07 11:47 | 39.59665 | 115.03360 | 30308 ft | 455 kts | 251° |
| 2026-05-07 11:47 | 39.56749 | 114.96091 | 30318 ft | 455 kts | 251° |
| 2026-05-07 11:48 | 39.53833 | 114.88818 | 30311 ft | 454 kts | 251° |
| 2026-05-07 11:48 | 39.50928 | 114.81609 | 30313 ft | 454 kts | 251° |
| 2026-05-07 11:49 | 39.48007 | 114.74364 | 30313 ft | 453 kts | 251° |
| 2026-05-07 11:49 | 39.45080 | 114.67132 | 30320 ft | 453 kts | 251° |
| 2026-05-07 11:50 | 39.42154 | 114.59907 | 30318 ft | 453 kts | 251° |
| 2026-05-07 11:50 | 39.39222 | 114.52698 | 30320 ft | 453 kts | 251° |
| 2026-05-07 11:51 | 39.36288 | 114.45498 | 30310 ft | 453 kts | 250° |
| 2026-05-07 11:51 | 39.33343 | 114.38316 | 30307 ft | 451 kts | 250° |
| 2026-05-07 11:52 | 39.30408 | 114.31145 | 30323 ft | 452 kts | 250° |
| 2026-05-07 11:52 | 39.27192 | 114.24078 | 30316 ft | 463 kts | 243° |
| 2026-05-07 11:53 | 39.22821 | 114.17825 | 30318 ft | 480 kts | 231° |
| 2026-05-07 11:53 | 39.17275 | 114.12779 | 30320 ft | 498 kts | 218° |
| 2026-05-07 11:54 | 39.10741 | 114.09379 | 30321 ft | 517 kts | 205° |
| 2026-05-07 11:54 | 39.03806 | 114.06932 | 30327 ft | 516 kts | 205° |
| 2026-05-07 11:55 | 38.96894 | 114.04464 | 30322 ft | 514 kts | 205° |
| 2026-05-07 11:55 | 38.89994 | 114.02024 | 30343 ft | 515 kts | 205° |
| 2026-05-07 11:56 | 38.83128 | 113.99598 | 30325 ft | 510 kts | 205° |
| 2026-05-07 11:56 | 38.76297 | 113.97176 | 30329 ft | 509 kts | 205° |
| 2026-05-07 11:57 | 38.69485 | 113.94785 | 30327 ft | 507 kts | 205° |
| 2026-05-07 11:57 | 38.62700 | 113.92390 | 30326 ft | 505 kts | 206° |
| 2026-05-07 11:58 | 38.55942 | 113.90022 | 30326 ft | 503 kts | 206° |
| 2026-05-07 11:58 | 38.49191 | 113.87648 | 30333 ft | 503 kts | 206° |
| 2026-05-07 11:59 | 38.42510 | 113.85318 | 30335 ft | 500 kts | 206° |
| 2026-05-07 11:59 | 38.35792 | 113.82964 | 30327 ft | 500 kts | 206° |
| 2026-05-07 12:00 | 38.29072 | 113.80633 | 30327 ft | 500 kts | 206° |
| 2026-05-07 12:00 | 38.22356 | 113.78316 | 30325 ft | 500 kts | 206° |
| 2026-05-07 12:01 | 38.15652 | 113.75996 | 30335 ft | 499 kts | 206° |
| 2026-05-07 12:01 | 38.08957 | 113.73699 | 30339 ft | 497 kts | 207° |
| 2026-05-07 12:02 | 38.02284 | 113.71400 | 30336 ft | 497 kts | 207° |
| 2026-05-07 12:02 | 37.95610 | 113.69114 | 30339 ft | 496 kts | 207° |
| 2026-05-07 12:03 | 37.88949 | 113.66831 | 30342 ft | 495 kts | 207° |
| 2026-05-07 12:03 | 37.82296 | 113.64558 | 30352 ft | 495 kts | 207° |
| 2026-05-07 12:04 | 37.75650 | 113.62290 | 30350 ft | 495 kts | 207° |
| 2026-05-07 12:04 | 37.69009 | 113.60030 | 30354 ft | 494 kts | 206° |
| 2026-05-07 12:05 | 37.62367 | 113.57770 | 30360 ft | 495 kts | 206° |
| 2026-05-07 12:05 | 37.55719 | 113.55517 | 30361 ft | 495 kts | 206° |
| 2026-05-07 12:06 | 37.49071 | 113.53265 | 30366 ft | 495 kts | 206° |
| 2026-05-07 12:06 | 37.42427 | 113.51020 | 30373 ft | 494 kts | 206° |
| 2026-05-07 12:07 | 37.35789 | 113.48779 | 30373 ft | 493 kts | 206° |
| 2026-05-07 12:07 | 37.29161 | 113.46548 | 30374 ft | 493 kts | 206° |
| 2026-05-07 12:08 | 37.22540 | 113.44323 | 30374 ft | 492 kts | 206° |
| 2026-05-07 12:08 | 37.15929 | 113.42105 | 30380 ft | 491 kts | 206° |
| 2026-05-07 12:09 | 37.09326 | 113.39892 | 30380 ft | 491 kts | 205° |
| 2026-05-07 12:09 | 37.02768 | 113.37700 | 30371 ft | 491 kts | 205° |
| 2026-05-07 12:10 | 36.96164 | 113.35498 | 30378 ft | 491 kts | 205° |
| 2026-05-07 12:10 | 36.89571 | 113.33299 | 30382 ft | 490 kts | 205° |
| 2026-05-07 12:11 | 36.82981 | 113.31112 | 30376 ft | 489 kts | 205° |
| 2026-05-07 12:11 | 36.76409 | 113.28926 | 30370 ft | 489 kts | 205° |
| 2026-05-07 12:12 | 36.69836 | 113.26752 | 30373 ft | 488 kts | 204° |
| 2026-05-07 12:12 | 36.63278 | 113.24579 | 30372 ft | 488 kts | 204° |
| 2026-05-07 12:13 | 36.56726 | 113.22418 | 30366 ft | 487 kts | 204° |
| 2026-05-07 12:13 | 36.50168 | 113.20255 | 30366 ft | 487 kts | 204° |
| 2026-05-07 12:14 | 36.43607 | 113.18096 | 30367 ft | 488 kts | 204° |
| 2026-05-07 12:14 | 36.37036 | 113.15937 | 30363 ft | 488 kts | 203° |
| 2026-05-07 12:15 | 36.30424 | 113.13923 | 30361 ft | 495 kts | 198° |
| 2026-05-07 12:15 | 36.23500 | 113.13494 | 30359 ft | 510 kts | 185° |
| 2026-05-07 12:16 | 36.16427 | 113.15115 | 30361 ft | 525 kts | 170° |
| 2026-05-07 12:16 | 36.09517 | 113.18204 | 30367 ft | 527 kts | 167° |
| 2026-05-07 12:17 | 36.02625 | 113.21280 | 30369 ft | 526 kts | 167° |
| 2026-05-07 12:17 | 35.95768 | 113.24372 | 30059 ft | 518 kts | 167° |
| 2026-05-07 12:17 | 35.92434 | 113.25869 | 29161 ft | 502 kts | 167° |
| 2026-05-07 12:18 | 35.89200 | 113.27313 | 28296 ft | 488 kts | 167° |
| 2026-05-07 12:18 | 35.86035 | 113.28721 | 27453 ft | 480 kts | 167° |
| 2026-05-07 12:18 | 35.82913 | 113.30112 | 26648 ft | 475 kts | 167° |
| 2026-05-07 12:18 | 35.79807 | 113.31498 | 25844 ft | 474 kts | 166° |
| 2026-05-07 12:19 | 35.76704 | 113.32882 | 25077 ft | 475 kts | 166° |
| 2026-05-07 12:19 | 35.73540 | 113.34287 | 24821 ft | 489 kts | 166° |
| 2026-05-07 12:19 | 35.70314 | 113.35721 | 24822 ft | 496 kts | 166° |
| 2026-05-07 12:19 | 35.67067 | 113.37172 | 24824 ft | 495 kts | 165° |
| 2026-05-07 12:20 | 35.63903 | 113.38591 | 24819 ft | 475 kts | 166° |
| 2026-05-07 12:20 | 35.60800 | 113.39965 | 24803 ft | 474 kts | 166° |
| 2026-05-07 12:20 | 35.57748 | 113.41305 | 24786 ft | 469 kts | 166° |
| 2026-05-07 12:20 | 35.54678 | 113.42667 | 24403 ft | 473 kts | 166° |
| 2026-05-07 12:21 | 35.51585 | 113.44040 | 23318 ft | 469 kts | 165° |
| 2026-05-07 12:21 | 35.48558 | 113.45387 | 22156 ft | 458 kts | 164° |
| 2026-05-07 12:21 | 35.45595 | 113.46695 | 21013 ft | 449 kts | 163° |
| 2026-05-07 12:21 | 35.42682 | 113.47978 | 19926 ft | 442 kts | 162° |
| 2026-05-07 12:22 | 35.39816 | 113.49271 | 18875 ft | 436 kts | 161° |
| 2026-05-07 12:22 | 35.36990 | 113.50557 | 17754 ft | 430 kts | 160° |
| 2026-05-07 12:22 | 35.34201 | 113.51809 | 16607 ft | 423 kts | 161° |
| 2026-05-07 12:22 | 35.31464 | 113.53027 | 15507 ft | 415 kts | 160° |
| 2026-05-07 12:23 | 35.29640 | 113.53844 | 14889 ft | 410 kts | 160° |
| 2026-05-07 12:23 | 35.26231 | 113.55376 | 14282 ft | 381 kts | 160° |
| 2026-05-07 12:23 | 35.23789 | 113.56468 | 13755 ft | 366 kts | 160° |
| 2026-05-07 12:23 | 35.22226 | 113.57167 | 13437 ft | 357 kts | 160° |
| 2026-05-07 12:24 | 35.19181 | 113.58527 | 12806 ft | 340 kts | 160° |
| 2026-05-07 12:24 | 35.17721 | 113.59180 | 12495 ft | 334 kts | 160° |
| 2026-05-07 12:24 | 35.15567 | 113.60142 | 12036 ft | 327 kts | 160° |
| 2026-05-07 12:24 | 35.13446 | 113.61088 | 11584 ft | 323 kts | 160° |
| 2026-05-07 12:25 | 35.11340 | 113.62027 | 11141 ft | 321 kts | 160° |
| 2026-05-07 12:25 | 35.09243 | 113.62962 | 10535 ft | 324 kts | 160° |
| 2026-05-07 12:25 | 35.07143 | 113.63890 | 10068 ft | 317 kts | 161° |
| 2026-05-07 12:25 | 35.05081 | 113.64777 | 9558 ft | 312 kts | 161° |
| 2026-05-07 12:26 | 35.03049 | 113.65657 | 9059 ft | 308 kts | 161° |
| 2026-05-07 12:26 | 35.01045 | 113.66532 | 8565 ft | 304 kts | 160° |
| 2026-05-07 12:26 | 34.99064 | 113.67395 | 8084 ft | 301 kts | 161° |
| 2026-05-07 12:26 | 34.97105 | 113.68246 | 7613 ft | 297 kts | 161° |
| 2026-05-07 12:27 | 34.95164 | 113.69089 | 7153 ft | 294 kts | 161° |
| 2026-05-07 12:27 | 34.93244 | 113.69922 | 6704 ft | 291 kts | 161° |
| 2026-05-07 12:27 | 34.91347 | 113.70746 | 6233 ft | 288 kts | 161° |
| 2026-05-07 12:27 | 34.89469 | 113.71561 | 5769 ft | 285 kts | 161° |
| 2026-05-07 12:28 | 34.87671 | 113.72339 | 5325 ft | 281 kts | 161° |
| 2026-05-07 12:28 | 34.85779 | 113.72831 | 4853 ft | 278 kts | 177° |
| 2026-05-07 12:28 | 34.83867 | 113.72732 | 4411 ft | 273 kts | 185° |
| 2026-05-07 12:28 | 34.82002 | 113.72555 | 4311 ft | 268 kts | 184° |
| 2026-05-07 12:29 | 34.80195 | 113.72401 | 4207 ft | 253 kts | 184° |
| 2026-05-07 12:29 | 34.78488 | 113.72248 | 4118 ft | 239 kts | 183° |
| 2026-05-07 12:29 | 34.76879 | 113.72102 | 4077 ft | 228 kts | 184° |
| 2026-05-07 12:29 | 34.75305 | 113.71961 | 3947 ft | 226 kts | 183° |
| 2026-05-07 12:30 | 34.73759 | 113.71823 | 3929 ft | 223 kts | 183° |
| 2026-05-07 12:30 | 34.72146 | 113.71449 | 3928 ft | 253 kts | 202° |
| 2026-05-07 12:30 | 34.70668 | 113.70233 | 3930 ft | 261 kts | 224° |
| 2026-05-07 12:30 | 34.69658 | 113.68396 | 3930 ft | 264 kts | 248° |
| 2026-05-07 12:31 | 34.69310 | 113.66223 | 3926 ft | 263 kts | 271° |
| 2026-05-07 12:31 | 34.69674 | 113.64063 | 3925 ft | 261 kts | 292° |
| 2026-05-07 12:31 | 34.70366 | 113.62019 | 3939 ft | 262 kts | 294° |
| 2026-05-07 12:31 | 34.71044 | 113.59961 | 3943 ft | 263 kts | 293° |
| 2026-05-07 12:32 | 34.71454 | 113.57826 | 3922 ft | 256 kts | 270° |
| 2026-05-07 12:32 | 34.71087 | 113.55794 | 3919 ft | 239 kts | 247° |
| 2026-05-07 12:32 | 34.70169 | 113.54198 | 3919 ft | 227 kts | 224° |
| 2026-05-07 12:32 | 34.68876 | 113.53163 | 3924 ft | 222 kts | 201° |
| 2026-05-07 12:33 | 34.65881 | 113.53084 | 3928 ft | 219 kts | 158° |
| 2026-05-07 12:33 | 34.64593 | 113.54020 | 3929 ft | 215 kts | 135° |
| 2026-05-07 12:33 | 34.63702 | 113.55471 | 3926 ft | 214 kts | 117° |
| 2026-05-07 12:34 | 34.63077 | 113.57109 | 3931 ft | 214 kts | 111° |
| 2026-05-07 12:34 | 34.62508 | 113.58781 | 3933 ft | 214 kts | 110° |
| 2026-05-07 12:34 | 34.61959 | 113.60437 | 3932 ft | 215 kts | 110° |
| 2026-05-07 12:34 | 34.61380 | 113.62108 | 3935 ft | 215 kts | 111° |
| 2026-05-07 12:35 | 34.60825 | 113.63792 | 3935 ft | 215 kts | 110° |
| 2026-05-07 12:35 | 34.60242 | 113.65484 | 3735 ft | 219 kts | 111° |
| 2026-05-07 12:35 | 34.59667 | 113.67192 | 3456 ft | 218 kts | 110° |
| 2026-05-07 12:35 | 34.59105 | 113.68866 | 3165 ft | 210 kts | 111° |
| 2026-05-07 12:36 | 34.58558 | 113.70442 | 2889 ft | 193 kts | 109° |
| 2026-05-07 12:36 | 34.58063 | 113.71964 | 2636 ft | 196 kts | 110° |
| 2026-05-07 12:36 | 34.57526 | 113.73487 | 2385 ft | 195 kts | 110° |
| 2026-05-07 12:36 | 34.57052 | 113.74916 | 2140 ft | 170 kts | 109° |
| 2026-05-07 12:37 | 34.56649 | 113.76105 | 1930 ft | 145 kts | 109° |
| 2026-05-07 12:37 | 34.56278 | 113.77198 | 1746 ft | 132 kts | 109° |
| 2026-05-07 12:37 | 34.55952 | 113.78153 | 1562 ft | 116 kts | 107° |
| 2026-05-07 12:37 | 34.55660 | 113.79038 | 1426 ft | 112 kts | 110° |
| 2026-05-07 12:38 | 34.55358 | 113.79908 | 1275 ft | 110 kts | 108° |
| 2026-05-07 12:38 | 34.55076 | 113.80778 | 1117 ft | 110 kts | 110° |
| 2026-05-07 12:38 | 34.54769 | 113.81639 | 987 ft | 114 kts | 110° |
| 2026-05-07 12:38 | 34.54479 | 113.82521 | 824 ft | 113 kts | 109° |
| 2026-05-07 12:39 | 34.54179 | 113.83403 | 667 ft | 112 kts | 111° |
| 2026-05-07 12:39 | 34.53877 | 113.84284 | 516 ft | 114 kts | 110° |
| 2026-05-07 12:39 | 34.53618 | 113.85061 | 497 ft | 82 kts | 112° |
| 2026-05-07 12:39 | 34.53444 | 113.85561 | 488 ft | 55 kts | 112° |
| 2026-05-07 12:40 | 34.53304 | 113.85915 | 492 ft | 35 kts | 142° |
| 2026-05-07 12:40 | 34.53169 | 113.86026 | 496 ft | 0 kts | 144° |
| 2026-05-07 12:41 | 34.53128 | 113.86001 | 496 ft | 11 kts | 236° |
| 2026-05-07 12:41 | 34.53138 | 113.85896 | 496 ft | 18 kts | 291° |
| 2026-05-07 12:42 | 34.53195 | 113.85729 | 496 ft | 23 kts | 292° |
| 2026-05-07 12:42 | 34.53260 | 113.85534 | 489 ft | 27 kts | 292° |
| 2026-05-07 12:42 | 34.53333 | 113.85314 | 491 ft | 30 kts | 292° |
| 2026-05-07 12:42 | 34.53414 | 113.85073 | 496 ft | 32 kts | 292° |
| 2026-05-07 12:43 | 34.53460 | 113.84881 | 496 ft | 10 kts | 233° |
| 2026-05-07 12:43 | 34.53387 | 113.84839 | 492 ft | 14 kts | 202° |
| 2026-05-07 12:43 | 34.53283 | 113.84789 | 497 ft | 18 kts | 201° |
| 2026-05-07 12:43 | 34.53171 | 113.84736 | 496 ft | 9 kts | 194° |
| 2026-05-07 12:44 | 34.53133 | 113.84802 | 493 ft | 5 kts | 111° |
| 2026-05-07 12:44 | 34.53128 | 113.84819 | 496 ft | 0 kts | 104° |